Share

Hamilton, ND

Hallock Municipal (KHCO) Elev 820 ft | 48.75 °N, 96.94 °W | Change Station
Active Advisory: Flood Warning

Current weather conditions updated 14 minutes ago

Overcast
Overcast
48 °F
Feels Like 48 °F
N
20
Wind Variable Wind from SE
Gusts 26 mph
Sunrise 6:33 AM
Sunset 8:26 PM
Moon Waning Gibbous

Today is forecast to be Much Warmer than yesterday. Cloudy with rain tonight.

Pressure 30.20 in
Visibility 10.0 miles
Clouds Overcast 9000 ft
Dew Point 23 °F
Humidity 37%
Rainfall 0.00 in
Snow Depth Not available.
UV 2 out of 16
Pollen 9.00 out of 12
Air Quality Not available.
Flu Activity Sporadic
METAR KHCO 181853Z AUTO 14017G23KT 10SM OVC090 09/M05 A3020 RMK AO2

More Conditions Fewer Conditions

Pressure 30.20 in
Visibility 10.0 miles
Clouds Overcast 9000 ft
Dew Point 23 °F
Humidity 37%
Rainfall 0.00 in
Snow Depth Not available.
UV 2 out of 16
Pollen 9.00 out of 12
Air Quality Not available.
Flu Activity Sporadic
METAR KHCO 181853Z AUTO 14017G23KT 10SM OVC090 09/M05 A3020 RMK AO2

More Conditions Fewer Conditions

10-Day Weather Forecast

Almanac

Astronomy

Apr. 18, 2014 Rise Set
Actual Time 6:33 AM CDT 8:26 PM CDT
Civil Twilight 5:59 AM CDT 8:59 PM CDT
Nautical Twilight 5:18 AM CDT 9:41 PM CDT
Astronomical Twilight 4:32 AM CDT 10:27 PM CDT
Moon No Moon Rise 8:45 AM CDT
Length of Visible Light 15h 00m
Length of Day
13h 52m
Tomorrow will be 3m 24s longer.
Waning Gibbous, 86% of the Moon is Illuminated
Today
Waning Gibbous
Apr 22
Last Quarter
Apr 29
New
May 6
First Quarter
May 14
Full

Today's Extremes

State Highs State Lows

Community

  • What's for Lunch?
    What's for Lunch?
  • SUNRISE THROUGH THE TREES.
    SUNRISE THROUGH THE TREES.
  • Dog Wood Blossoms
    Dog Wood Blossoms
  • Morning Light
    Morning Light
  • New Day
    New Day

WunderPhotos

Upload Photos

1,702,464 photos uploaded!

Nearby

Snow Depth

Station Depth Elevation
No new snow has been reported.

Coastal Water Temperatures

Place Temperature
No Stations Reporting

Earthquake Activity

City Distance Mag. Time & Date
No recent earthquake activity has been reported nearby.
Minimum magnitude displayed is 2.5.

Nearby Weather Stations

There are no personal weather stations in this area.

What do you think?

We're not finished. Please let us know what you like, what you don't like, and what you are still missing.